weather station
Area: 4758 km2
The highest point: Sněžka (1603 m.s.l.)
Total stations: 28
Stations online: 27
Stations offline: 1
Current weather
9°C

Meteorological map - weather stations in Královéhradecký

. The meteorological maps show weather information from WARIO weather stations

Weather stations Královéhradecký

 UpdatesNameStatusTemperatureHumidityWind speedWind direction
28.9.2020 20:51Božanov7.5 °C92.9 %0.6 m/s SE
28.9.2020 20:51Červený Kostelec - Bohdašín6.1 °C100.0 %1.2 m/s NE
28.9.2020 20:52Červený Kostelec - Stolín8.3 °C100.0 %0.0 m/s SW
28.9.2020 20:51Brzice7.7 °C100.0 %2.2 m/s N
28.9.2020 20:51Chlumec nad Cidlinou IV9.1 °C100.0 %0.0 m/s N
28.9.2020 20:51Chlumec nad Cidlinou II9.4 °C98.3 %0.0 m/s NW
28.9.2020 20:52Hradec Králové - Plotiště nad Labem8.8 °C100.0 %1.1 m/s N
28.9.2020 20:41Vrchlabí7.6 °C100.0 %0.0 m/s W
28.9.2020 20:51Hajnice7.0 °C100.0 %0.7 m/s NE
28.9.2020 20:51Černilov8.4 °C100.0 %0.0 m/s N
28.9.2020 20:52Jaroměř-Josefov8.5 °C96.7 %0.0 m/s NW
28.9.2020 20:52Jičín8.8 °C96.1 %0.8 m/s NE
28.9.2020 20:51Kacákova Lhota10.4 °C80.5 %0.0 m/s SW
28.9.2020 20:51Červený Kostelec - Kemp Brodský7.5 °C97.0 %0.7 m/s NW
28.9.2020 20:51Hradec Králové9.6 °C93.9 %0.0 m/s N
28.9.2020 20:52Pecka - Horní Javoří9.7 °C87.5 %0.8 m/s W
28.9.2020 20:52Vrchovnice8.4 °C100.0 %0.7 m/s N
28.9.2020 20:52Janatov8.9 °C98.0 %0.0 m/s W
28.9.2020 20:51Hradec Králové - Roudnička8.5 °C95.6 %0.8 m/s N
28.9.2020 20:51Pohoří9.3 °C99.3 %0.9 m/s NW
28.9.2020 20:52Police nad Metují7.4 °C100.0 %1.3 m/s NW
28.9.2020 20:51Zábřezí - Řečice8.2 °C100.0 %2.3 m/s E
28.9.2020 20:52Skuřina9.0 °C97.9 %0.0 m/s S
28.9.2020 20:52Sobotka9.1 °C99.5 %0.0 m/s S
28.9.2020 20:52Trutnov7.2 °C100.0 %1.6 m/s NE
28.9.2020 20:51Vrchlabí8.4 °C93.1 %0.0 m/s W
28.9.2020 20:52Vysoká nad Labem8.8 °C93.7 %0.0 m/s NE
28.9.2020 20:52Lužec nad Cidlinou10.6 °C100.0 %0.0 m/s N
Email notifications
Enter your email address to subscribe to notifications about news at warioweather.com. Your email address will not be used for any purpose other than sending these emails and will not be provided to any third party. The subscription can be ended at any time.
All data are only indicative. The portal administrator has no responsibility for potentially incorrect data and related consequences. Publishing or further sharing of content from www.warioweather.com is only allowed with written consent from WANET s.r.o.